createdAt,value
2023-02-22T00:01:28.695Z,99780.94
2023-02-22T00:03:00.726Z,99775.81
2023-02-22T00:04:35.852Z,99785.25
2023-02-22T00:06:08.168Z,99788.66
2023-02-22T00:07:40.154Z,99785.25
2023-02-22T00:09:12.229Z,99778.41
2023-02-22T00:10:44.943Z,99783.53
2023-02-22T00:12:16.920Z,99790.41
2023-02-22T00:13:50.836Z,99792.97
2023-02-22T00:15:27.595Z,99794.69
2023-02-22T00:17:00.105Z,99794.69
2023-02-22T00:18:32.223Z,99796.38
2023-02-22T00:20:07.032Z,99796.38
2023-02-22T00:21:38.960Z,99798.94
2023-02-22T00:23:16.903Z,99794.66
2023-02-22T00:24:49.030Z,99792.94
2023-02-22T00:26:23.764Z,99797.22
2023-02-22T00:27:56.557Z,99803.22
2023-02-22T00:29:28.971Z,99803.22
2023-02-22T00:31:00.980Z,99798.09
2023-02-22T00:32:33.350Z,99798.09
2023-02-22T00:34:05.484Z,99791.25
2023-02-22T00:35:37.426Z,99793.81
2023-02-22T00:37:11.391Z,99789.53
2023-02-22T00:38:43.453Z,99792.94
2023-02-22T00:40:19.507Z,99792.09
2023-02-22T00:41:51.546Z,99792.09
2023-02-22T00:43:26.735Z,99796.38
2023-02-22T00:44:58.737Z,99791.25
2023-02-22T00:46:30.759Z,99795.50
2023-02-22T00:48:06.623Z,99784.38
2023-02-22T00:49:39.348Z,99789.47
2023-02-22T00:51:11.426Z,99787.75
2023-02-22T00:52:43.409Z,99781.75
2023-02-22T00:54:17.459Z,99792.03
2023-02-22T00:55:49.726Z,99787.75
2023-02-22T00:57:22.523Z,99790.34
2023-02-22T00:58:54.552Z,99795.50
2023-02-22T01:00:28.324Z,99780.94
2023-02-22T01:02:00.380Z,99784.38
2023-02-22T01:03:32.559Z,99789.53
2023-02-22T01:05:05.907Z,99782.69
2023-02-22T01:06:38.042Z,99786.13
2023-02-22T01:08:11.493Z,99785.25
2023-02-22T01:09:44.628Z,99793.81
2023-02-22T01:11:18.141Z,99787.81
2023-02-22T01:12:53.126Z,99794.66
2023-02-22T01:14:27.077Z,99796.34
2023-02-22T01:16:01.014Z,99791.19
2023-02-22T01:17:33.163Z,99792.06
2023-02-22T01:19:06.585Z,99787.78
2023-02-22T01:20:38.475Z,99788.66
2023-02-22T01:22:11.439Z,99788.66
2023-02-22T01:23:45.882Z,99786.94
2023-02-22T01:25:21.218Z,99792.06
2023-02-22T01:26:53.546Z,99803.19
2023-02-22T01:28:25.602Z,99792.03
2023-02-22T01:29:57.582Z,99798.00
2023-02-22T01:31:29.652Z,99795.44
2023-02-22T01:33:03.133Z,99794.56
2023-02-22T01:34:35.126Z,99791.16
2023-02-22T01:36:11.701Z,99792.00
2023-02-22T01:37:43.678Z,99791.13
2023-02-22T01:39:18.208Z,99787.72
2023-02-22T01:40:51.639Z,99791.97
2023-02-22T01:42:24.433Z,99792.81
2023-02-22T01:43:56.366Z,99792.78
2023-02-22T01:45:31.064Z,99789.34
2023-02-22T01:47:05.335Z,99789.28
2023-02-22T01:49:06.844Z,99788.44
2023-02-22T01:50:49.537Z,99792.72
2023-02-22T01:52:21.871Z,99787.59
2023-02-22T01:53:57.793Z,99798.75
2023-02-22T01:55:29.891Z,99791.94
2023-02-22T01:57:06.661Z,99793.63
2023-02-22T01:58:41.673Z,99790.22
2023-02-22T02:00:17.580Z,99789.38
2023-02-22T02:01:49.720Z,99788.47
2023-02-22T02:03:27.752Z,99788.50
2023-02-22T02:05:00.465Z,99785.91
2023-02-22T02:06:34.121Z,99783.34
2023-02-22T02:08:36.540Z,99785.91
2023-02-22T02:10:14.714Z,99779.00
2023-02-22T02:11:47.116Z,99784.13
2023-02-22T02:13:19.098Z,99774.69
2023-02-22T02:14:51.187Z,99776.38
2023-02-22T02:16:25.269Z,99772.06
2023-02-22T02:18:01.091Z,99776.34
2023-02-22T02:19:57.440Z,99772.91
2023-02-22T02:21:50.148Z,99773.75
2023-02-22T02:23:59.005Z,99766.91
2023-02-22T02:25:49.590Z,99763.50
2023-02-22T02:27:29.455Z,99772.84
2023-02-22T02:29:22.453Z,99767.72
2023-02-22T02:31:25.027Z,99771.97
2023-02-22T02:33:02.116Z,99765.94
2023-02-22T02:35:00.297Z,99768.50
2023-02-22T02:36:39.167Z,99770.19
2023-02-22T02:38:17.748Z,99775.28
2023-02-22T02:39:56.126Z,99786.28
2023-02-22T02:41:35.434Z,99787.16
2023-02-22T02:43:27.671Z,99784.63
2023-02-22T02:45:10.343Z,99782.94
2023-02-22T02:47:35.029Z,99783.75
2023-02-22T02:49:11.154Z,99787.03
2023-02-22T02:50:48.406Z,99786.06
2023-02-22T02:52:21.592Z,99786.91
2023-02-22T02:53:54.353Z,99795.41
2023-02-22T02:55:26.586Z,99786.81
2023-02-22T02:56:58.927Z,99786.75
2023-02-22T02:58:31.061Z,99787.56
2023-02-22T03:00:03.702Z,99781.59
2023-02-22T03:02:04.763Z,99785.91
2023-02-22T03:04:10.510Z,99795.28
2023-02-22T03:06:20.273Z,99792.72
2023-02-22T03:08:21.545Z,99795.25
2023-02-22T03:10:13.503Z,99796.19
2023-02-22T03:12:02.501Z,99790.25
2023-02-22T03:13:59.046Z,99784.31
2023-02-22T03:15:57.412Z,99798.00
2023-02-22T03:17:54.763Z,99796.25
2023-02-22T03:19:44.729Z,99793.59
2023-02-22T03:21:33.846Z,99796.13
2023-02-22T03:23:12.560Z,99792.63
2023-02-22T03:24:53.370Z,99797.75
2023-02-22T03:26:36.189Z,99806.25
2023-02-22T03:28:12.088Z,99805.38
2023-02-22T03:29:46.047Z,99796.00
2023-02-22T03:31:24.179Z,99796.94
2023-02-22T03:33:09.331Z,99801.25
2023-02-22T03:34:44.498Z,99796.13
2023-02-22T03:36:25.210Z,99791.81
2023-02-22T03:37:58.891Z,99797.72
2023-02-22T03:39:31.692Z,99800.22
2023-02-22T03:41:05.287Z,99801.06
2023-02-22T03:42:37.977Z,99801.06
2023-02-22T03:44:12.862Z,99808.72
2023-02-22T03:45:46.231Z,99806.16
2023-02-22T03:47:32.357Z,99800.19
2023-02-22T03:49:10.774Z,99800.22
2023-02-22T03:50:43.135Z,99801.03
2023-02-22T03:52:15.169Z,99800.25
2023-02-22T03:53:50.069Z,99796.00
2023-02-22T03:55:24.094Z,99802.00
2023-02-22T03:56:58.787Z,99799.41
2023-02-22T03:58:32.048Z,99800.19
2023-02-22T04:00:08.468Z,99807.00
2023-02-22T04:01:40.498Z,99806.13
2023-02-22T04:03:12.797Z,99810.38
2023-02-22T04:04:46.179Z,99804.31
2023-02-22T04:06:18.242Z,99806.81
2023-02-22T04:07:50.270Z,99806.81
2023-02-22T04:09:22.330Z,99804.22
2023-02-22T04:10:54.296Z,99808.44
2023-02-22T04:12:26.312Z,99800.78
2023-02-22T04:13:58.727Z,99804.25
2023-02-22T04:15:30.776Z,99805.16
2023-02-22T04:17:02.810Z,99809.38
2023-02-22T04:18:34.841Z,99796.47
2023-02-22T04:20:07.580Z,99808.34
2023-02-22T04:21:39.596Z,99806.53
2023-02-22T04:23:11.693Z,99803.03
2023-02-22T04:24:43.678Z,99808.06
2023-02-22T04:26:15.806Z,99802.03
2023-02-22T04:27:48.018Z,99809.63
2023-02-22T04:29:22.884Z,99803.66
2023-02-22T04:30:54.976Z,99805.25
2023-02-22T04:32:27.909Z,99799.31
2023-02-22T04:34:01.059Z,99807.78
2023-02-22T04:35:35.386Z,99807.69
2023-02-22T04:37:08.105Z,99811.09
2023-02-22T04:38:40.363Z,99803.47
2023-02-22T04:40:12.536Z,99817.22
2023-02-22T04:41:44.517Z,99819.09
2023-02-22T04:43:16.702Z,99810.72
2023-02-22T04:44:48.651Z,99810.72
2023-02-22T04:46:20.824Z,99826.13
2023-02-22T04:47:52.897Z,99818.44
2023-02-22T04:49:24.949Z,99824.41
2023-02-22T04:50:56.980Z,99821.88
2023-02-22T04:52:29.170Z,99820.13
2023-02-22T04:54:01.262Z,99819.19
2023-02-22T04:55:34.421Z,99821.63
2023-02-22T04:57:06.374Z,99824.16
2023-02-22T04:58:38.432Z,99830.03
2023-02-22T05:00:11.063Z,99826.56
2023-02-22T05:01:43.100Z,99823.13
2023-02-22T05:03:15.118Z,99822.31
2023-02-22T05:04:47.368Z,99830.00
2023-02-22T05:06:19.601Z,99822.38
2023-02-22T05:07:51.697Z,99831.00
2023-02-22T05:09:23.960Z,99825.03
2023-02-22T05:10:56.328Z,99844.69
2023-02-22T05:12:28.475Z,99835.41
2023-02-22T05:14:00.672Z,99840.59
2023-02-22T05:15:33.033Z,99832.91
2023-02-22T05:17:05.336Z,99832.03
2023-02-22T05:18:37.418Z,99831.97
2023-02-22T05:20:28.234Z,99828.59
2023-02-22T05:22:00.568Z,99836.97
2023-02-22T05:23:33.257Z,99838.56
2023-02-22T05:25:05.620Z,99832.59
2023-02-22T05:26:37.712Z,99831.75
2023-02-22T05:28:13.545Z,99838.66
2023-02-22T05:29:45.642Z,99844.50
2023-02-22T05:31:17.949Z,99847.78
2023-02-22T05:32:51.505Z,99850.34
2023-02-22T05:34:24.305Z,99865.59
2023-02-22T05:35:56.552Z,99857.97
2023-02-22T05:37:28.624Z,99857.22
2023-02-22T05:39:00.649Z,99865.00
2023-02-22T05:40:33.242Z,99855.78
2023-02-22T05:42:05.380Z,99849.91
2023-02-22T05:43:38.285Z,99855.94
2023-02-22T05:45:16.343Z,99857.84
2023-02-22T05:46:48.479Z,99862.94
2023-02-22T05:48:22.640Z,99856.09
2023-02-22T05:49:54.809Z,99863.81
2023-02-22T05:51:26.886Z,99868.97
2023-02-22T05:52:59.196Z,99868.16
2023-02-22T05:54:31.216Z,99867.38
2023-02-22T05:56:03.309Z,99870.91
2023-02-22T05:57:35.525Z,99876.16
2023-02-22T05:59:07.588Z,99873.69
2023-02-22T06:00:39.661Z,99882.31
2023-02-22T06:02:11.683Z,99879.88
2023-02-22T06:03:46.503Z,99882.56
2023-02-22T06:05:18.746Z,99883.47
2023-02-22T06:06:50.954Z,99883.56
2023-02-22T06:08:23.005Z,99891.38
2023-02-22T06:09:55.038Z,99891.44
2023-02-22T06:11:27.115Z,99889.78
2023-02-22T06:13:00.518Z,99903.53
2023-02-22T06:14:32.565Z,99897.59
2023-02-22T06:16:04.907Z,99890.81
2023-02-22T06:17:37.141Z,99900.28
2023-02-22T06:19:09.328Z,99904.63
2023-02-22T06:20:41.735Z,99898.72
2023-02-22T06:22:19.121Z,99898.81
2023-02-22T06:23:51.111Z,99892.88
2023-02-22T06:25:25.960Z,99891.22
2023-02-22T06:27:00.989Z,99895.56
2023-02-22T06:28:32.943Z,99893.91
2023-02-22T06:30:05.739Z,99888.81
2023-02-22T06:31:37.888Z,99896.56
2023-02-22T06:33:11.094Z,99897.44
2023-02-22T06:34:43.107Z,99892.31
2023-02-22T06:36:15.100Z,99891.47
2023-02-22T06:37:47.223Z,99899.22
2023-02-22T06:39:19.480Z,99899.25
2023-02-22T06:40:52.115Z,99894.97
2023-02-22T06:42:24.833Z,99903.53
2023-02-22T06:43:56.953Z,99891.50
2023-02-22T06:45:29.031Z,99894.09
2023-02-22T06:47:01.209Z,99893.25
2023-02-22T06:48:33.340Z,99894.91
2023-02-22T06:50:05.706Z,99894.84
2023-02-22T06:51:38.907Z,99899.94
2023-02-22T06:53:11.010Z,99888.78
2023-02-22T06:54:43.878Z,99896.44
2023-02-22T06:56:16.016Z,99887.78
2023-02-22T06:57:48.273Z,99891.16
2023-02-22T06:59:20.339Z,99889.38
2023-02-22T07:00:52.419Z,99890.16
2023-02-22T07:02:24.889Z,99884.88
2023-02-22T07:03:57.327Z,99886.47
2023-02-22T07:05:29.534Z,99876.06
2023-02-22T07:07:01.628Z,99884.53
2023-02-22T07:08:33.868Z,99883.59
2023-02-22T07:10:08.538Z,99877.41
2023-02-22T07:11:40.805Z,99866.94
2023-02-22T07:13:12.952Z,99882.28
2023-02-22T07:14:45.003Z,99872.56
2023-02-22T07:16:17.210Z,99883.41
2023-02-22T07:17:49.515Z,99876.28
2023-02-22T07:19:21.591Z,99881.22
2023-02-22T07:20:54.766Z,99891.38
2023-02-22T07:22:27.038Z,99879.97
2023-02-22T07:24:02.228Z,99871.13
2023-02-22T07:25:35.928Z,99869.16
2023-02-22T07:27:07.939Z,99862.00
2023-02-22T07:28:39.893Z,99860.81
2023-02-22T07:30:31.532Z,99864.72
2023-02-22T07:32:03.771Z,99863.22
2023-02-22T07:33:35.958Z,99864.91
2023-02-22T07:35:25.250Z,99866.84
2023-02-22T07:36:57.220Z,99856.72
2023-02-22T07:38:29.288Z,99862.84
2023-02-22T07:40:01.349Z,99856.09
2023-02-22T07:41:33.322Z,99857.47
2023-02-22T07:43:07.194Z,99854.50
2023-02-22T07:44:39.399Z,99853.28
2023-02-22T07:46:11.512Z,99858.09
2023-02-22T07:47:43.531Z,99852.59
2023-02-22T07:49:15.756Z,99853.97
2023-02-22T07:50:48.065Z,99850.22
2023-02-22T07:52:20.235Z,99861.97
2023-02-22T07:53:52.493Z,99853.09
2023-02-22T07:55:26.779Z,99861.44
2023-02-22T07:56:58.847Z,99856.75
2023-02-22T07:58:31.996Z,99849.34
2023-02-22T08:00:04.670Z,99847.06
2023-02-22T08:01:37.535Z,99856.25
2023-02-22T08:03:13.438Z,99843.81
2023-02-22T08:04:45.497Z,99845.38
2023-02-22T08:06:18.183Z,99842.53
2023-02-22T08:07:50.432Z,99843.94
2023-02-22T08:09:23.978Z,99851.31
2023-02-22T08:10:56.401Z,99848.41
2023-02-22T08:12:28.503Z,99845.78
2023-02-22T08:14:00.708Z,99842.88
2023-02-22T08:15:35.445Z,99852.81
2023-02-22T08:17:08.837Z,99843.09
2023-02-22T08:18:41.408Z,99843.66
2023-02-22T08:20:13.992Z,99843.47
2023-02-22T08:21:45.974Z,99844.44
2023-02-22T08:23:19.541Z,99844.06
2023-02-22T08:24:54.598Z,99842.50
2023-02-22T08:26:26.799Z,99837.72
2023-02-22T08:28:09.170Z,99835.50
2023-02-22T08:29:41.305Z,99835.44
2023-02-22T08:31:13.440Z,99847.38
2023-02-22T08:32:47.222Z,99833.19
2023-02-22T08:34:19.334Z,99838.28
2023-02-22T08:35:52.131Z,99836.34
2023-02-22T08:37:24.267Z,99831.13
2023-02-22T08:38:56.306Z,99834.31
2023-02-22T08:40:34.222Z,99827.81
2023-02-22T08:42:06.717Z,99837.13
2023-02-22T08:43:38.780Z,99822.25
2023-02-22T08:45:11.877Z,99825.34
2023-02-22T08:46:44.060Z,99829.41
2023-02-22T08:48:17.365Z,99824.97
2023-02-22T08:49:49.444Z,99831.81
2023-02-22T08:51:21.768Z,99829.09
2023-02-22T08:52:55.453Z,99828.00
2023-02-22T08:54:27.511Z,99834.00
2023-02-22T08:55:59.578Z,99831.00
2023-02-22T08:57:32.216Z,99829.00
2023-02-22T08:59:04.318Z,99826.09
2023-02-22T09:00:39.162Z,99828.63
2023-02-22T09:02:18.170Z,99830.97
2023-02-22T09:03:50.833Z,99817.28
2023-02-22T09:05:23.042Z,99827.38
2023-02-22T09:06:55.205Z,99826.31
2023-02-22T09:08:27.330Z,99828.75
2023-02-22T09:09:59.558Z,99825.22
2023-02-22T09:11:34.724Z,99823.94
2023-02-22T09:13:06.904Z,99818.94
2023-02-22T09:14:38.941Z,99818.81
2023-02-22T09:16:11.061Z,99830.69
2023-02-22T09:17:43.078Z,99821.72
2023-02-22T09:19:15.053Z,99823.47
2023-02-22T09:20:47.045Z,99816.13
2023-02-22T09:22:19.115Z,99819.78
2023-02-22T09:23:51.148Z,99817.81
2023-02-22T09:25:24.213Z,99814.78
2023-02-22T09:26:56.712Z,99811.88
2023-02-22T09:28:29.291Z,99821.94
2023-02-22T09:30:01.379Z,99818.19
2023-02-22T09:31:39.242Z,99812.59
2023-02-22T09:33:14.052Z,99818.97
2023-02-22T09:34:47.407Z,99806.66
2023-02-22T09:36:22.191Z,99814.31
2023-02-22T09:37:56.164Z,99803.19
2023-02-22T09:39:28.280Z,99805.81
2023-02-22T09:41:14.411Z,99803.53
2023-02-22T09:42:57.546Z,99804.16
2023-02-22T09:44:38.481Z,99804.63
2023-02-22T09:46:19.895Z,99796.56
2023-02-22T09:48:08.040Z,99803.50
2023-02-22T09:50:16.092Z,99804.28
2023-02-22T09:52:05.344Z,99791.78
2023-02-22T09:53:42.136Z,99794.56
2023-02-22T09:55:41.533Z,99790.47
2023-02-22T09:57:22.244Z,99797.13
2023-02-22T09:59:04.007Z,99790.81
2023-02-22T10:00:38.352Z,99791.78
2023-02-22T10:02:32.482Z,99784.50
2023-02-22T10:04:20.778Z,99786.09
2023-02-22T10:06:05.656Z,99779.84
2023-02-22T10:07:55.763Z,99774.84
2023-02-22T10:09:30.721Z,99785.03
2023-02-22T10:11:17.754Z,99770.78
2023-02-22T10:13:29.342Z,99776.09
2023-02-22T10:15:30.561Z,99781.31
2023-02-22T10:17:14.917Z,99765.34
2023-02-22T10:19:08.771Z,99773.47
2023-02-22T10:20:57.750Z,99763.81
2023-02-22T10:22:38.648Z,99762.50
2023-02-22T10:24:40.358Z,99762.25
2023-02-22T10:26:12.739Z,99760.50
2023-02-22T10:27:57.627Z,99754.25
2023-02-22T10:29:40.297Z,99763.28
2023-02-22T10:31:21.265Z,99758.81
2023-02-22T10:33:05.736Z,99740.28
2023-02-22T10:34:41.898Z,99743.84
2023-02-22T10:36:20.397Z,99743.84
2023-02-22T10:37:56.831Z,99745.44
2023-02-22T10:39:33.547Z,99739.13
2023-02-22T10:41:31.279Z,99727.88
2023-02-22T10:43:05.112Z,99729.72
2023-02-22T10:44:38.766Z,99723.72
2023-02-22T10:46:21.609Z,99726.41
2023-02-22T10:47:59.274Z,99714.75
2023-02-22T10:49:36.626Z,99716.28
2023-02-22T10:51:09.980Z,99715.44
2023-02-22T10:52:41.894Z,99714.09
2023-02-22T10:54:13.942Z,99718.84
2023-02-22T10:56:22.233Z,99711.13
2023-02-22T10:58:04.972Z,99704.69
2023-02-22T10:59:39.581Z,99718.47
2023-02-22T11:01:37.435Z,99702.41
2023-02-22T11:03:21.244Z,99708.84
2023-02-22T11:04:53.946Z,99704.25
2023-02-22T11:06:26.221Z,99702.59
2023-02-22T11:08:22.893Z,99695.81
2023-02-22T11:10:00.261Z,99695.13
2023-02-22T11:11:32.695Z,99698.19
2023-02-22T11:13:18.811Z,99698.19
2023-02-22T11:14:50.919Z,99694.19
2023-02-22T11:16:41.358Z,99692.78
2023-02-22T11:18:26.316Z,99682.97
2023-02-22T11:19:59.518Z,99688.72
2023-02-22T11:21:32.960Z,99685.66
2023-02-22T11:23:06.028Z,99676.38
2023-02-22T11:24:58.528Z,99683.28
2023-02-22T11:26:38.902Z,99685.59
2023-02-22T11:28:15.351Z,99685.66
2023-02-22T11:29:51.170Z,99670.94
2023-02-22T11:31:28.835Z,99680.69
2023-02-22T11:33:17.749Z,99675.84
2023-02-22T11:35:03.525Z,99671.19
2023-02-22T11:36:42.913Z,99667.63
2023-02-22T11:38:21.418Z,99671.03
2023-02-22T11:40:07.380Z,99668.06
2023-02-22T11:41:39.420Z,99670.19
2023-02-22T11:43:19.351Z,99667.63
2023-02-22T11:45:23.951Z,99677.72
2023-02-22T11:46:57.636Z,99667.97
2023-02-22T11:48:39.436Z,99660.44
2023-02-22T11:50:30.724Z,99660.03
2023-02-22T11:52:17.761Z,99664.66
2023-02-22T11:53:59.808Z,99661.22
2023-02-22T11:55:42.693Z,99656.72
2023-02-22T11:57:24.755Z,99654.50
2023-02-22T11:59:08.576Z,99652.03
2023-02-22T12:00:54.276Z,99652.16
2023-02-22T12:02:29.172Z,99653.19
2023-02-22T12:04:22.769Z,99645.19
2023-02-22T12:06:19.813Z,99645.63
2023-02-22T12:08:13.873Z,99646.88
2023-02-22T12:09:58.246Z,99643.66
2023-02-22T12:11:45.458Z,99650.22
2023-02-22T12:13:18.205Z,99645.06
2023-02-22T12:14:58.850Z,99640.28
2023-02-22T12:17:08.156Z,99644.78
2023-02-22T12:19:07.682Z,99638.78
2023-02-22T12:20:48.049Z,99633.59
2023-02-22T12:22:26.476Z,99637.34
2023-02-22T12:24:20.446Z,99633.44
2023-02-22T12:26:11.844Z,99632.50
2023-02-22T12:27:49.616Z,99632.41
2023-02-22T12:29:42.136Z,99637.78
2023-02-22T12:31:21.343Z,99634.56
2023-02-22T12:32:54.486Z,99632.41
2023-02-22T12:34:49.184Z,99633.75
2023-02-22T12:36:26.153Z,99629.81
2023-02-22T12:38:07.236Z,99636.59
2023-02-22T12:40:01.199Z,99622.34
2023-02-22T12:41:59.444Z,99626.44
2023-02-22T12:43:41.593Z,99615.81
2023-02-22T12:45:21.743Z,99623.31
2023-02-22T12:46:57.009Z,99627.34
2023-02-22T12:48:40.916Z,99621.28
2023-02-22T12:50:24.205Z,99620.16
2023-02-22T12:52:20.838Z,99615.72
2023-02-22T12:54:05.799Z,99622.09
2023-02-22T12:55:45.996Z,99619.78
2023-02-22T12:57:24.141Z,99616.13
2023-02-22T12:59:03.234Z,99619.41
2023-02-22T13:00:40.848Z,99622.19
2023-02-22T13:02:27.830Z,99615.44
2023-02-22T13:04:05.849Z,99620.19
2023-02-22T13:05:45.511Z,99619.63
2023-02-22T13:07:36.368Z,99608.19
2023-02-22T13:09:24.868Z,99617.13
2023-02-22T13:11:20.768Z,99612.78
2023-02-22T13:13:11.385Z,99614.47
2023-02-22T13:14:55.370Z,99607.72
2023-02-22T13:16:37.708Z,99603.75
2023-02-22T13:18:32.819Z,99601.69
2023-02-22T13:20:30.021Z,99607.19
2023-02-22T13:22:30.239Z,99596.84
2023-02-22T13:24:16.080Z,99600.72
2023-02-22T13:25:58.423Z,99608.81
2023-02-22T13:27:54.828Z,99601.28
2023-02-22T13:29:39.548Z,99605.56
2023-02-22T13:31:23.673Z,99604.66
2023-02-22T13:33:21.147Z,99598.25
2023-02-22T13:35:07.953Z,99605.75
2023-02-22T13:37:02.036Z,99605.91
2023-02-22T13:38:55.782Z,99603.53
2023-02-22T13:40:42.917Z,99598.91
2023-02-22T13:42:18.035Z,99600.66
2023-02-22T13:44:03.625Z,99601.84
2023-02-22T13:45:44.705Z,99603.41
2023-02-22T13:47:29.040Z,99604.94
2023-02-22T13:49:19.473Z,99600.97
2023-02-22T13:51:42.296Z,99602.09
2023-02-22T13:53:30.125Z,99598.16
2023-02-22T13:55:11.411Z,99596.03
2023-02-22T13:56:44.858Z,99598.25
2023-02-22T13:58:17.111Z,99605.63
2023-02-22T13:59:49.425Z,99604.66
2023-02-22T14:01:41.461Z,99603.91
2023-02-22T14:03:13.534Z,99603.75
2023-02-22T14:04:45.643Z,99597.25
2023-02-22T14:06:36.943Z,99600.03
2023-02-22T14:08:19.170Z,99603.50
2023-02-22T14:09:59.518Z,99604.44
2023-02-22T14:11:31.543Z,99601.91
2023-02-22T14:13:10.047Z,99602.38
2023-02-22T14:15:27.740Z,99606.81
2023-02-22T14:17:26.651Z,99604.31
2023-02-22T14:19:25.457Z,99604.81
2023-02-22T14:21:16.521Z,99606.53
2023-02-22T14:22:53.299Z,99601.47
2023-02-22T14:24:25.739Z,99608.31
2023-02-22T14:26:12.115Z,99603.16
2023-02-22T14:27:44.332Z,99604.00
2023-02-22T14:29:18.614Z,99609.88
2023-02-22T14:30:50.726Z,99608.59
